Check out our new BloomSky Weather System.

Active alerts


No alerts


Thunder radar  blitzortung!


Rain radar more information rain snow radar


Visit our other weather sites:

Template documentation
and downloads

And another site



Weather Underground History page Text

Daily Summary for April 21, 2017 Units:  Metric    English   Both
« Previous Day
Next Day »
Daily Weekly Monthly Yearly Custom
  High: Low: Average:
Temperature: 30.9 °C 20.2 °C 25.3 °C
Dew Point: 23.2 °C 18.1 °C 21.1 °C
Humidity: 99 % 48 % 79 %
Wind Speed: 22.5 km/h 0 km/h 6.4 km/h
Wind Gust: 29 km/h - -
Wind:- - SSE
Pressure: 1014.8 hPa 1008 hPa -
Precipitation: 0 mm    
Historical Graphs
 
 
Tabular Data for April 21, 2017
Time Temperature Dew Point Pressure Wind Wind Speed Wind Gust Humidity Rainfall Rate (Hourly)
00:01 22.6 °C 21.1 °C 1014.8 hPa SE 4.8 km/h 9.7 km/h 91 % 0 mm
00:06 22.6 °C 21.1 °C 1014.8 hPa SE 3.2 km/h 9.7 km/h 91 % 0 mm
00:11 22.5 °C 21 °C 1014.8 hPa South 3.2 km/h 9.7 km/h 91 % 0 mm
00:16 22.4 °C 20.9 °C 1014.8 hPa SSW 6.4 km/h 9.7 km/h 91 % 0 mm
00:21 22.4 °C 21 °C 1014.8 hPa SSE 4.8 km/h 9.7 km/h 92 % 0 mm
00:26 22.4 °C 21 °C 1014.8 hPa SSE 4.8 km/h 9.7 km/h 92 % 0 mm
00:31 22.3 °C 20.9 °C 1014.8 hPa SE 4.8 km/h 9.7 km/h 92 % 0 mm
00:36 22.3 °C 20.9 °C 1014.8 hPa SSE 3.2 km/h 9.7 km/h 92 % 0 mm
00:41 22.2 °C 21 °C 1014.8 hPa SSE 1.6 km/h 9.7 km/h 93 % 0 mm
00:46 22.2 °C 21 °C 1014.8 hPa SSE 3.2 km/h 8 km/h 93 % 0 mm
00:51 22.2 °C 21 °C 1014.4 hPa SSE 4.8 km/h 6.4 km/h 93 % 0 mm
00:56 22.1 °C 20.9 °C 1014.4 hPa SE 1.6 km/h 6.4 km/h 93 % 0 mm
01:01 22.1 °C 20.9 °C 1014.4 hPa SSE 3.2 km/h 6.4 km/h 93 % 0 mm
01:06 22.1 °C 20.9 °C 1014.4 hPa SE 3.2 km/h 8 km/h 93 % 0 mm
01:11 22 °C 20.8 °C 1014.4 hPa SE 3.2 km/h 8 km/h 93 % 0 mm
01:20 21.9 °C 20.7 °C 1014.4 hPa SSE 3.2 km/h 6.4 km/h 93 % 0 mm
01:25 21.9 °C 20.9 °C 1014.4 hPa SE 1.6 km/h 8 km/h 94 % 0 mm
01:30 21.9 °C 20.9 °C 1014.4 hPa SE 3.2 km/h 8 km/h 94 % 0 mm
01:35 21.8 °C 20.8 °C 1014.1 hPa South 1.6 km/h 8 km/h 94 % 0 mm
01:40 21.8 °C 20.8 °C 1014.1 hPa ESE 3.2 km/h 6.4 km/h 94 % 0 mm
01:45 21.7 °C 20.7 °C 1014.1 hPa Calm   4.8 km/h 94 % 0 mm
01:50 21.7 °C 20.7 °C 1014.1 hPa Calm   4.8 km/h 94 % 0 mm
01:55 21.6 °C 20.6 °C 1014.1 hPa ESE 1.6 km/h 4.8 km/h 94 % 0 mm
02:00 21.6 °C 20.6 °C 1014.1 hPa SE 1.6 km/h 3.2 km/h 94 % 0 mm
02:05 21.6 °C 20.8 °C 1014.1 hPa ESE 1.6 km/h 3.2 km/h 95 % 0 mm
02:10 21.5 °C 20.7 °C 1014.1 hPa ESE 1.6 km/h 4.8 km/h 95 % 0 mm
02:15 21.5 °C 20.7 °C 1013.8 hPa ESE 3.2 km/h 4.8 km/h 95 % 0 mm
02:20 21.4 °C 20.6 °C 1013.8 hPa Calm   4.8 km/h 95 % 0 mm
02:25 21.4 °C 20.6 °C 1013.8 hPa Calm   4.8 km/h 95 % 0 mm
02:30 21.3 °C 20.5 °C 1013.8 hPa Calm   4.8 km/h 95 % 0 mm
02:35 21.3 °C 20.5 °C 1013.8 hPa Calm   4.8 km/h 95 % 0 mm
02:40 21.2 °C 20.4 °C 1013.8 hPa Calm   3.2 km/h 95 % 0 mm
02:45 21.2 °C 20.4 °C 1013.8 hPa Calm   1.6 km/h 95 % 0 mm
02:50 21.3 °C 20.6 °C 1013.8 hPa Calm   4.8 km/h 96 % 0 mm
02:55 21.3 °C 20.6 °C 1013.8 hPa Calm   4.8 km/h 96 % 0 mm
03:00 21.3 °C 20.6 °C 1013.4 hPa SE 3.2 km/h 4.8 km/h 96 % 0 mm
03:05 21.3 °C 20.6 °C 1013.4 hPa SSE 1.6 km/h 4.8 km/h 96 % 0 mm
03:10 21.2 °C 20.5 °C 1013.4 hPa SSE 1.6 km/h 4.8 km/h 96 % 0 mm
03:15 21.3 °C 20.6 °C 1013.4 hPa Calm   4.8 km/h 96 % 0 mm
03:20 21.3 °C 20.6 °C 1013.4 hPa ESE 1.6 km/h 3.2 km/h 96 % 0 mm
03:25 21.3 °C 20.6 °C 1013.4 hPa Calm   3.2 km/h 96 % 0 mm
03:30 21.3 °C 20.6 °C 1013.4 hPa Calm   3.2 km/h 96 % 0 mm
03:35 21.2 °C 20.5 °C 1013.4 hPa Calm   3.2 km/h 96 % 0 mm
03:40 21.1 °C 20.4 °C 1013.4 hPa Calm   3.2 km/h 96 % 0 mm
03:45 21.1 °C 20.4 °C 1013.4 hPa Calm   3.2 km/h 96 % 0 mm
03:50 21.1 °C 20.4 °C 1013.4 hPa Calm   1.6 km/h 96 % 0 mm
03:55 21 °C 20.3 °C 1013.4 hPa Calm   1.6 km/h 96 % 0 mm
04:00 21 °C 20.3 °C 1013.4 hPa Calm   1.6 km/h 96 % 0 mm
04:05 20.9 °C 20.4 °C 1013.4 hPa SSE 1.6 km/h 3.2 km/h 97 % 0 mm
04:11 20.9 °C 20.4 °C 1013.4 hPa Calm   3.2 km/h 97 % 0 mm
04:16 20.9 °C 20.4 °C 1013.4 hPa ESE 1.6 km/h 3.2 km/h 97 % 0 mm
04:21 20.9 °C 20.4 °C 1013.4 hPa SE 1.6 km/h 3.2 km/h 97 % 0 mm
04:26 20.8 °C 20.3 °C 1013.4 hPa Calm   3.2 km/h 97 % 0 mm
04:31 20.8 °C 20.3 °C 1013.4 hPa Calm   3.2 km/h 97 % 0 mm
04:36 20.8 °C 20.3 °C 1013.4 hPa Calm   3.2 km/h 97 % 0 mm
04:41 20.8 °C 20.3 °C 1013.4 hPa Calm   1.6 km/h 97 % 0 mm
04:46 20.8 °C 20.3 °C 1013.4 hPa Calm   1.6 km/h 97 % 0 mm
04:51 20.7 °C 20.2 °C 1013.4 hPa Calm   1.6 km/h 97 % 0 mm
04:56 20.6 °C 20.1 °C 1013.4 hPa Calm   1.6 km/h 97 % 0 mm
05:01 20.6 °C 20.1 °C 1013.4 hPa Calm   1.6 km/h 97 % 0 mm
05:06 20.6 °C 20.1 °C 1013.1 hPa Calm   1.6 km/h 97 % 0 mm
05:11 20.6 °C 20.1 °C 1013.1 hPa Calm   1.6 km/h 97 % 0 mm
05:16 20.6 °C 20.1 °C 1013.1 hPa Calm   1.6 km/h 97 % 0 mm
05:21 20.6 °C 20.3 °C 1013.1 hPa Calm   1.6 km/h 98 % 0 mm
05:26 20.5 °C 20 °C 1013.1 hPa Calm   1.6 km/h 97 % 0 mm
05:31 20.4 °C 19.9 °C 1013.1 hPa Calm   1.6 km/h 97 % 0 mm
05:36 20.4 °C 20.1 °C 1013.1 hPa Calm     98 % 0 mm
05:41 20.3 °C 19.8 °C 1013.1 hPa Calm     97 % 0 mm
05:46 20.2 °C 19.9 °C 1013.1 hPa Calm     98 % 0 mm
05:51 20.3 °C 20 °C 1013.1 hPa Calm     98 % 0 mm
05:53 20.3 °C 20 °C 1013.1 hPa Calm     98 % 0 mm
05:56 20.3 °C 20 °C 1013.1 hPa Calm   1.6 km/h 98 % 0 mm
06:01 20.3 °C 20 °C 1013.1 hPa Calm   1.6 km/h 98 % 0 mm
06:06 20.3 °C 20 °C 1013.1 hPa Calm   1.6 km/h 98 % 0 mm
06:11 20.4 °C 20.1 °C 1013.1 hPa Calm   1.6 km/h 98 % 0 mm
06:15 20.5 °C 20.2 °C 1013.1 hPa Calm   1.6 km/h 98 % 0 mm
06:20 20.4 °C 20.1 °C 1013.1 hPa Calm   1.6 km/h 98 % 0 mm
06:25 20.4 °C 20.1 °C 1013.1 hPa Calm     98 % 0 mm
06:30 20.4 °C 20.1 °C 1013.1 hPa Calm     98 % 0 mm
06:35 20.4 °C 20.1 °C 1013.1 hPa Calm   1.6 km/h 98 % 0 mm
06:40 20.3 °C 20 °C 1013.1 hPa Calm   1.6 km/h 98 % 0 mm
06:45 20.3 °C 20 °C 1013.1 hPa Calm   1.6 km/h 98 % 0 mm
06:50 20.3 °C 20 °C 1013.4 hPa Calm   1.6 km/h 98 % 0 mm
06:55 20.3 °C 20 °C 1013.4 hPa Calm   1.6 km/h 98 % 0 mm
07:00 20.3 °C 20 °C 1013.1 hPa Calm     98 % 0 mm
07:05 20.4 °C 20.1 °C 1013.4 hPa Calm   1.6 km/h 98 % 0 mm
07:10 20.4 °C 20.1 °C 1013.4 hPa Calm   1.6 km/h 98 % 0 mm
07:15 20.5 °C 20.2 °C 1013.4 hPa Calm   1.6 km/h 98 % 0 mm
07:20 20.6 °C 20.3 °C 1013.4 hPa Calm   1.6 km/h 98 % 0 mm
07:25 20.7 °C 20.4 °C 1013.4 hPa Calm   1.6 km/h 98 % 0 mm
07:30 20.8 °C 20.5 °C 1013.4 hPa Calm   1.6 km/h 98 % 0 mm
07:35 20.9 °C 20.7 °C 1013.4 hPa Calm   1.6 km/h 99 % 0 mm
07:40 20.9 °C 20.7 °C 1013.4 hPa Calm     99 % 0 mm
07:45 21 °C 20.8 °C 1013.4 hPa Calm     99 % 0 mm
07:50 21.1 °C 20.9 °C 1013.4 hPa Calm   1.6 km/h 99 % 0 mm
07:55 21.2 °C 21 °C 1013.4 hPa Calm   3.2 km/h 99 % 0 mm
08:00 21.3 °C 21.1 °C 1013.4 hPa SSE 1.6 km/h 3.2 km/h 99 % 0 mm
08:05 21.4 °C 21.2 °C 1013.4 hPa ESE 1.6 km/h 3.2 km/h 99 % 0 mm
08:10 21.6 °C 21.4 °C 1013.4 hPa SE 3.2 km/h 4.8 km/h 99 % 0 mm
08:15 21.8 °C 21.6 °C 1013.4 hPa ESE 3.2 km/h 4.8 km/h 99 % 0 mm
08:20 22.1 °C 21.9 °C 1013.4 hPa SE 8 km/h 8 km/h 99 % 0 mm
08:25 22.2 °C 22 °C 1013.4 hPa South 1.6 km/h 9.7 km/h 99 % 0 mm
08:30 22.4 °C 22.2 °C 1013.4 hPa South 3.2 km/h 9.7 km/h 99 % 0 mm
08:35 22.5 °C 22.2 °C 1013.4 hPa SSE 3.2 km/h 9.7 km/h 98 % 0 mm
08:40 22.6 °C 22.3 °C 1013.4 hPa SSE 1.6 km/h 9.7 km/h 98 % 0 mm
08:45 22.7 °C 22.4 °C 1013.4 hPa SSE 6.4 km/h 8 km/h 98 % 0 mm
08:50 22.8 °C 22.5 °C 1013.4 hPa SE 6.4 km/h 8 km/h 98 % 0 mm
08:55 22.9 °C 22.6 °C 1013.4 hPa South 4.8 km/h 9.7 km/h 98 % 0 mm
09:00 23.1 °C 22.6 °C 1013.4 hPa South 6.4 km/h 9.7 km/h 97 % 0 mm
09:05 23.2 °C 22.7 °C 1013.4 hPa SE 8 km/h 12.9 km/h 97 % 0 mm
09:10 23.3 °C 22.6 °C 1013.4 hPa SE 3.2 km/h 14.5 km/h 96 % 0 mm
09:15 23.5 °C 22.8 °C 1013.4 hPa ESE 6.4 km/h 14.5 km/h 96 % 0 mm
09:20 23.6 °C 22.8 °C 1013.4 hPa SW 8 km/h 14.5 km/h 95 % 0 mm
09:26 23.8 °C 22.8 °C 1013.4 hPa SSE 4.8 km/h 14.5 km/h 94 % 0 mm
09:31 24.3 °C 23.1 °C 1013.1 hPa SSE 6.4 km/h 16.1 km/h 93 % 0 mm
09:36 24.8 °C 23.2 °C 1013.1 hPa South 6.4 km/h 16.1 km/h 91 % 0 mm
09:41 25.1 °C 23 °C 1013.1 hPa ESE 16.1 km/h 16.1 km/h 88 % 0 mm
09:46 25.4 °C 23.1 °C 1013.1 hPa SE 3.2 km/h 19.3 km/h 87 % 0 mm
09:51 25.7 °C 22.8 °C 1013.1 hPa South 8 km/h 19.3 km/h 84 % 0 mm
09:56 25.6 °C 22.5 °C 1013.1 hPa SW 8 km/h 19.3 km/h 83 % 0 mm
10:01 25.8 °C 22.7 °C 1013.1 hPa SSW 9.7 km/h 17.7 km/h 83 % 0 mm
10:06 26.1 °C 22.6 °C 1013.1 hPa SE 14.5 km/h 24.1 km/h 81 % 0 mm
10:11 26.3 °C 22.8 °C 1013.1 hPa South 9.7 km/h 24.1 km/h 81 % 0 mm
10:16 26.1 °C 22.2 °C 1013.1 hPa South 12.9 km/h 24.1 km/h 79 % 0 mm
10:21 25.9 °C 22.2 °C 1013.1 hPa SE 17.7 km/h 22.5 km/h 80 % 0 mm
10:26 26.1 °C 22.6 °C 1013.1 hPa ESE 11.3 km/h 22.5 km/h 81 % 0 mm
10:31 26.6 °C 22.7 °C 1013.1 hPa SSE 12.9 km/h 20.9 km/h 79 % 0 mm
10:36 26.9 °C 22.3 °C 1013.1 hPa SW 16.1 km/h 25.7 km/h 76 % 0 mm
10:41 27.1 °C 22.9 °C 1013.1 hPa ESE 8 km/h 25.7 km/h 78 % 0 mm
10:46 27.4 °C 22.6 °C 1012.8 hPa South 6.4 km/h 25.7 km/h 75 % 0 mm
10:52 27.4 °C 22.1 °C 1012.8 hPa ESE 9.7 km/h 24.1 km/h 73 % 0 mm
10:57 27.6 °C 22.3 °C 1012.8 hPa South 12.9 km/h 24.1 km/h 73 % 0 mm
11:02 27.6 °C 21.6 °C 1012.8 hPa SSE 9.7 km/h 24.1 km/h 70 % 0 mm
11:07 27.8 °C 22.3 °C 1012.8 hPa SSE 11.3 km/h 24.1 km/h 72 % 0 mm
11:12 27.8 °C 22.1 °C 1012.4 hPa ESE 8 km/h 24.1 km/h 71 % 0 mm
11:17 27.9 °C 21.7 °C 1012.8 hPa SSE 22.5 km/h 24.1 km/h 69 % 0 mm
11:22 27.6 °C 21.9 °C 1012.4 hPa SE 8 km/h 27.4 km/h 71 % 0 mm
11:27 27.9 °C 22.2 °C 1012.4 hPa SSE 9.7 km/h 27.4 km/h 71 % 0 mm
11:32 28.1 °C 22.1 °C 1012.4 hPa SSW 8 km/h 27.4 km/h 70 % 0 mm
11:37 28.3 °C 21.8 °C 1012.4 hPa SE 8 km/h 22.5 km/h 68 % 0 mm
11:42 28.6 °C 21.9 °C 1012.1 hPa South 20.9 km/h 22.5 km/h 67 % 0 mm
11:47 28.7 °C 22 °C 1012.1 hPa SSW 6.4 km/h 25.7 km/h 67 % 0 mm
11:52 28.9 °C 21.9 °C 1012.1 hPa South 8 km/h 25.7 km/h 66 % 0 mm
11:57 28.9 °C 21.4 °C 1011.7 hPa South 14.5 km/h 25.7 km/h 64 % 0 mm
12:02 28.7 °C 21.7 °C 1011.7 hPa SSW 16.1 km/h 29 km/h 66 % 0 mm
12:07 28.4 °C 21.7 °C 1011.7 hPa SSE 11.3 km/h 29 km/h 67 % 0 mm
12:12 28.8 °C 22.3 °C 1011.7 hPa East 3.2 km/h 29 km/h 68 % 0 mm
12:17 28.8 °C 21.8 °C 1011.7 hPa South 11.3 km/h 20.9 km/h 66 % 0 mm
12:22 29.2 °C 21.4 °C 1011.7 hPa SSW 8 km/h 29 km/h 63 % 0 mm
12:27 29.5 °C 22.2 °C 1011.7 hPa South 6.4 km/h 29 km/h 65 % 0 mm
12:32 29.6 °C 21.8 °C 1011.7 hPa ESE 8 km/h 29 km/h 63 % 0 mm
12:37 29.2 °C 22.2 °C 1011.7 hPa South 6.4 km/h 24.1 km/h 66 % 0 mm
12:38 29.2 °C 22.2 °C 1011.4 hPa SSW 11.3 km/h 24.1 km/h 66 % 0 mm
12:43 29.2 °C 22.2 °C 1011.4 hPa SSW 12.9 km/h 22.5 km/h 66 % 0 mm
12:48 29.2 °C 22.2 °C 1011.4 hPa ESE 11.3 km/h 22.5 km/h 66 % 0 mm
12:53 29.4 °C 21.9 °C 1011.4 hPa SW 9.7 km/h 24.1 km/h 64 % 0 mm
12:58 29.7 °C 21.6 °C 1011.1 hPa South 14.5 km/h 25.7 km/h 62 % 0 mm
13:03 29.6 °C 21.5 °C 1011.1 hPa SE 6.4 km/h 25.7 km/h 62 % 0 mm
13:08 29.8 °C 22 °C 1011.1 hPa SE 20.9 km/h 25.7 km/h 63 % 0 mm
13:13 29.8 °C 21.5 °C 1011.1 hPa ESE 14.5 km/h 25.7 km/h 61 % 0 mm
13:18 29.8 °C 21.2 °C 1011.1 hPa SSE 11.3 km/h 25.7 km/h 60 % 0 mm
13:23 30.1 °C 21.5 °C 1011.1 hPa SSE 14.5 km/h 24.1 km/h 60 % 0 mm
13:28 30 °C 21.4 °C 1011.1 hPa SSE 16.1 km/h 22.5 km/h 60 % 0 mm
13:33 30.1 °C 21.5 °C 1011.1 hPa SSW 9.7 km/h 22.5 km/h 60 % 0 mm
13:38 30.2 °C 21.6 °C 1010.7 hPa SSE 8 km/h 24.1 km/h 60 % 0 mm
13:43 30 °C 21.4 °C 1010.7 hPa South 11.3 km/h 24.1 km/h 60 % 0 mm
13:48 29.8 °C 21.5 °C 1010.7 hPa SSW 8 km/h 24.1 km/h 61 % 0 mm
13:53 29.6 °C 21.5 °C 1010.7 hPa SE 6.4 km/h 22.5 km/h 62 % 0 mm
13:58 29.8 °C 22.3 °C 1010.7 hPa SW 8 km/h 19.3 km/h 64 % 0 mm
14:03 30.2 °C 22.1 °C 1010.7 hPa WSW 14.5 km/h 19.3 km/h 62 % 0 mm
14:08 29.9 °C 21.6 °C 1010.7 hPa SSW 6.4 km/h 22.5 km/h 61 % 0 mm
14:13 29.7 °C 21.9 °C 1010.7 hPa SSW 6.4 km/h 22.5 km/h 63 % 0 mm
14:18 29.6 °C 21.5 °C 1010.4 hPa WSW 1.6 km/h 22.5 km/h 62 % 0 mm
14:23 29.8 °C 21.5 °C 1010.4 hPa South 14.5 km/h 14.5 km/h 61 % 0 mm
14:28 30.2 °C 21.6 °C 1010.4 hPa SW 12.9 km/h 20.9 km/h 60 % 0 mm
14:33 30.1 °C 22 °C 1010 hPa SSE 11.3 km/h 20.9 km/h 62 % 0 mm
14:38 30 °C 21.4 °C 1010 hPa SSW 17.7 km/h 20.9 km/h 60 % 0 mm
14:43 30 °C 20.8 °C 1010 hPa South 6.4 km/h 20.9 km/h 58 % 0 mm
14:48 30.1 °C 21.7 °C 1010 hPa ESE 8 km/h 22.5 km/h 61 % 0 mm
14:53 30.3 °C 21.4 °C 1009.7 hPa SE 3.2 km/h 22.5 km/h 59 % 0 mm
14:58 30.6 °C 21.1 °C 1009.7 hPa West 6.4 km/h 22.5 km/h 57 % 0 mm
15:03 30.6 °C 21.1 °C 1009.7 hPa SSE 14.5 km/h 20.9 km/h 57 % 0 mm
15:08 30.3 °C 21.7 °C 1009.7 hPa South 9.7 km/h 24.1 km/h 60 % 0 mm
15:13 30.4 °C 21.2 °C 1009.4 hPa SW 19.3 km/h 24.1 km/h 58 % 0 mm
15:18 30.4 °C 21.5 °C 1009.4 hPa SSW 17.7 km/h 24.1 km/h 59 % 0 mm
15:23 30.5 °C 21 °C 1009.4 hPa SSW 4.8 km/h 22.5 km/h 57 % 0 mm
15:28 30.9 °C 21.7 °C 1009.4 hPa SE 6.4 km/h 22.5 km/h 58 % 0 mm
15:33 30.7 °C 20.6 °C 1009.4 hPa SSW 11.3 km/h 22.5 km/h 55 % 0 mm
15:38 30.3 °C 20.5 °C 1009.4 hPa SSW 9.7 km/h 20.9 km/h 56 % 0 mm
15:43 30.1 °C 20.1 °C 1009.4 hPa SSE 14.5 km/h 20.9 km/h 55 % 0 mm
15:48 30.1 °C 20.4 °C 1009 hPa South 12.9 km/h 24.1 km/h 56 % 0 mm
15:53 30.3 °C 20 °C 1009 hPa SSE 4.8 km/h 24.1 km/h 54 % 0 mm
15:58 30.4 °C 20.3 °C 1009 hPa NW 1.6 km/h 24.1 km/h 55 % 0 mm
16:03 30.3 °C 20.5 °C 1009 hPa SSE 11.3 km/h 24.1 km/h 56 % 0 mm
16:08 30.5 °C 20.1 °C 1009 hPa SSW 6.4 km/h 24.1 km/h 54 % 0 mm
16:13 30.3 °C 20 °C 1009 hPa South 8 km/h 20.9 km/h 54 % 0 mm
16:18 30.3 °C 20 °C 1008.7 hPa SSW 8 km/h 20.9 km/h 54 % 0 mm
16:23 30.4 °C 20 °C 1008.7 hPa WSW 3.2 km/h 22.5 km/h 54 % 0 mm
16:28 30.5 °C 18.9 °C 1008.7 hPa South 3.2 km/h 24.1 km/h 50 % 0 mm
16:33 30.5 °C 18.2 °C 1008.4 hPa South 14.5 km/h 24.1 km/h 48 % 0 mm
16:38 30.5 °C 19.2 °C 1008.4 hPa SSE 6.4 km/h 25.7 km/h 51 % 0 mm
16:43 30.7 °C 19.1 °C 1008.4 hPa SE 16.1 km/h 25.7 km/h 50 % 0 mm
16:49 30.7 °C 18.8 °C 1008.4 hPa South 12.9 km/h 25.7 km/h 49 % 0 mm
16:54 30.6 °C 18.7 °C 1008.4 hPa SSE 12.9 km/h 24.1 km/h 49 % 0 mm
16:59 30.6 °C 18.7 °C 1008.4 hPa SW 14.5 km/h 22.5 km/h 49 % 0 mm
17:04 30.6 °C 18.7 °C 1008.4 hPa SW 4.8 km/h 22.5 km/h 49 % 0 mm
17:09 30.7 °C 18.8 °C 1008.4 hPa SSW 6.4 km/h 22.5 km/h 49 % 0 mm
17:14 30.6 °C 18.7 °C 1008.4 hPa SSE 11.3 km/h 22.5 km/h 49 % 0 mm
17:19 30.5 °C 18.6 °C 1008.4 hPa SSE 12.9 km/h 22.5 km/h 49 % 0 mm
17:24 30.4 °C 18.2 °C 1008.4 hPa SSW 8 km/h 22.5 km/h 48 % 0 mm
17:29 30.3 °C 18.1 °C 1008.4 hPa SSE 9.7 km/h 22.5 km/h 48 % 0 mm
17:34 30.3 °C 19.3 °C 1008.4 hPa SSW 4.8 km/h 22.5 km/h 52 % 0 mm
17:39 30.4 °C 19.1 °C 1008.4 hPa SSE 9.7 km/h 20.9 km/h 51 % 0 mm
17:44 30.4 °C 19.1 °C 1008.4 hPa SSE 3.2 km/h 19.3 km/h 51 % 0 mm
17:49 30.5 °C 19.5 °C 1008.4 hPa SSE 12.9 km/h 22.5 km/h 52 % 0 mm
17:54 30.4 °C 19.7 °C 1008.4 hPa SSW 8 km/h 22.5 km/h 53 % 0 mm
17:59 30.4 °C 20.3 °C 1008.4 hPa SE 6.4 km/h 22.5 km/h 55 % 0 mm
18:04 30.3 °C 20.8 °C 1008.4 hPa South 9.7 km/h 17.7 km/h 57 % 0 mm
18:09 30.2 °C 21 °C 1008.4 hPa SE 11.3 km/h 17.7 km/h 58 % 0 mm
18:14 29.8 °C 20.9 °C 1008.4 hPa SSE 9.7 km/h 17.7 km/h 59 % 0 mm
18:19 29.6 °C 21 °C 1008.4 hPa South 9.7 km/h 20.9 km/h 60 % 0 mm
18:24 29.6 °C 21 °C 1008 hPa South 6.4 km/h 20.9 km/h 60 % 0 mm
18:29 29.6 °C 21.3 °C 1008 hPa SE 6.4 km/h 20.9 km/h 61 % 0 mm
18:34 29.5 °C 21.2 °C 1008.4 hPa SSW 8 km/h 19.3 km/h 61 % 0 mm
18:39 29.4 °C 21.4 °C 1008.4 hPa SSE 9.7 km/h 19.3 km/h 62 % 0 mm
18:44 29.3 °C 21.3 °C 1008.4 hPa South 11.3 km/h 17.7 km/h 62 % 0 mm
18:49 29.1 °C 20.8 °C 1008.4 hPa SE 11.3 km/h 17.7 km/h 61 % 0 mm
18:54 29.1 °C 20.3 °C 1008.4 hPa South 14.5 km/h 16.1 km/h 59 % 0 mm
18:59 29 °C 20.2 °C 1008.4 hPa South 9.7 km/h 17.7 km/h 59 % 0 mm
19:04 29 °C 20.7 °C 1008.4 hPa South 11.3 km/h 19.3 km/h 61 % 0 mm
19:09 28.9 °C 21.4 °C 1008.4 hPa SE 11.3 km/h 19.3 km/h 64 % 0 mm
19:14 28.6 °C 21.1 °C 1008.4 hPa SW 6.4 km/h 19.3 km/h 64 % 0 mm
19:19 28.3 °C 21.1 °C 1008.4 hPa SSE 6.4 km/h 24.1 km/h 65 % 0 mm
19:24 28.1 °C 20.9 °C 1008.4 hPa South 14.5 km/h 24.1 km/h 65 % 0 mm
19:30 27.9 °C 20.7 °C 1008.4 hPa ESE 8 km/h 24.1 km/h 65 % 0 mm
19:35 27.7 °C 20.8 °C 1008.4 hPa South 16.1 km/h 22.5 km/h 66 % 0 mm
19:40 27.6 °C 20.7 °C 1008.4 hPa SSW 6.4 km/h 22.5 km/h 66 % 0 mm
19:45 27.4 °C 20.5 °C 1008.4 hPa SSE 4.8 km/h 16.1 km/h 66 % 0 mm
19:50 27.2 °C 20.5 °C 1008.4 hPa SSW 8 km/h 16.1 km/h 67 % 0 mm
19:55 27.1 °C 20.9 °C 1008.4 hPa SSE 4.8 km/h 16.1 km/h 69 % 0 mm
20:00 27 °C 21.1 °C 1008.4 hPa South 4.8 km/h 16.1 km/h 70 % 0 mm
20:05 26.8 °C 20.9 °C 1008.4 hPa SE 8 km/h 14.5 km/h 70 % 0 mm
20:10 26.7 °C 20.8 °C 1008.4 hPa South 4.8 km/h 14.5 km/h 70 % 0 mm
20:15 26.7 °C 21 °C 1008.7 hPa SE 8 km/h 16.1 km/h 71 % 0 mm
20:20 26.6 °C 21.1 °C 1008.7 hPa SSE 9.7 km/h 16.1 km/h 72 % 0 mm
20:25 26.4 °C 21.4 °C 1008.7 hPa SE 8 km/h 17.7 km/h 74 % 0 mm
20:30 26.3 °C 21.5 °C 1008.7 hPa SSW 8 km/h 20.9 km/h 75 % 0 mm
20:32 26.3 °C 21.5 °C 1008.7 hPa South 14.5 km/h 20.9 km/h 75 % 0 mm
20:37 26.1 °C 21.5 °C 1008.7 hPa ESE 12.9 km/h 20.9 km/h 76 % 0 mm
20:42 25.9 °C 21.6 °C 1008.7 hPa SSE 8 km/h 20.9 km/h 77 % 0 mm
20:47 25.8 °C 21.7 °C 1008.7 hPa SSE 8 km/h 19.3 km/h 78 % 0 mm
20:52 25.7 °C 21.6 °C 1008.7 hPa SSE 12.9 km/h 19.3 km/h 78 % 0 mm
20:57 25.6 °C 21.7 °C 1008.7 hPa SSE 11.3 km/h 19.3 km/h 79 % 0 mm
21:02 25.4 °C 21.5 °C 1008.7 hPa SW 6.4 km/h 19.3 km/h 79 % 0 mm
21:07 25.4 °C 21.7 °C 1008.7 hPa South 4.8 km/h 17.7 km/h 80 % 0 mm
21:12 25.3 °C 21.6 °C 1008.7 hPa WSW 11.3 km/h 17.7 km/h 80 % 0 mm
21:17 25.3 °C 21.6 °C 1008.7 hPa SE 12.9 km/h 19.3 km/h 80 % 0 mm
21:22 25.2 °C 21.5 °C 1009 hPa ESE 17.7 km/h 19.3 km/h 80 % 0 mm
21:27 25.1 °C 21.6 °C 1009 hPa ESE 11.3 km/h 20.9 km/h 81 % 0 mm
21:32 25 °C 21.7 °C 1009 hPa SE 11.3 km/h 20.9 km/h 82 % 0 mm
21:37 24.9 °C 21.6 °C 1009 hPa ESE 4.8 km/h 20.9 km/h 82 % 0 mm
21:42 24.9 °C 21.6 °C 1009 hPa SSE 8 km/h 20.9 km/h 82 % 0 mm
21:47 24.8 °C 21.7 °C 1009 hPa SE 3.2 km/h 20.9 km/h 83 % 0 mm
21:52 24.7 °C 21.6 °C 1009 hPa ESE 17.7 km/h 20.9 km/h 83 % 0 mm
21:57 24.7 °C 21.8 °C 1009 hPa SE 14.5 km/h 19.3 km/h 84 % 0 mm
22:02 24.6 °C 21.7 °C 1009.4 hPa SSW 8 km/h 19.3 km/h 84 % 0 mm
22:07 24.5 °C 21.8 °C 1009.4 hPa ESE 11.3 km/h 19.3 km/h 85 % 0 mm
22:12 24.4 °C 21.7 °C 1009.4 hPa SE 8 km/h 19.3 km/h 85 % 0 mm
22:17 24.3 °C 21.6 °C 1009.4 hPa SSE 8 km/h 17.7 km/h 85 % 0 mm
22:22 24.2 °C 21.7 °C 1009.7 hPa ESE 8 km/h 19.3 km/h 86 % 0 mm
22:27 24.2 °C 21.7 °C 1010 hPa SE 8 km/h 19.3 km/h 86 % 0 mm
22:32 24.1 °C 21.6 °C 1010 hPa ESE 6.4 km/h 19.3 km/h 86 % 0 mm
22:37 24.1 °C 21.6 °C 1010 hPa SE 12.9 km/h 19.3 km/h 86 % 0 mm
22:42 24.1 °C 21.8 °C 1010 hPa SE 11.3 km/h 19.3 km/h 87 % 0 mm
22:47 24 °C 21.7 °C 1010 hPa SE 11.3 km/h 17.7 km/h 87 % 0 mm
22:52 23.9 °C 21.6 °C 1010.4 hPa South 9.7 km/h 22.5 km/h 87 % 0 mm
22:57 23.9 °C 21.6 °C 1010.4 hPa South 6.4 km/h 22.5 km/h 87 % 0 mm
23:02 23.9 °C 21.6 °C 1010 hPa ESE 4.8 km/h 22.5 km/h 87 % 0 mm
23:07 23.8 °C 21.7 °C 1010 hPa ESE 4.8 km/h 12.9 km/h 88 % 0 mm
23:12 23.8 °C 21.7 °C 1010 hPa SSE 8 km/h 12.9 km/h 88 % 0 mm
23:17 23.7 °C 21.6 °C 1010 hPa SE 8 km/h 12.9 km/h 88 % 0 mm
23:22 23.7 °C 21.6 °C 1010 hPa SSE 3.2 km/h 12.9 km/h 88 % 0 mm
23:27 23.7 °C 21.8 °C 1010 hPa SSE 4.8 km/h 14.5 km/h 89 % 0 mm
23:32 23.6 °C 21.7 °C 1010 hPa SSE 4.8 km/h 14.5 km/h 89 % 0 mm
23:37 23.6 °C 21.7 °C 1010 hPa South 4.8 km/h 14.5 km/h 89 % 0 mm
23:42 23.5 °C 21.6 °C 1010 hPa SE 8 km/h 11.3 km/h 89 % 0 mm
23:47 23.4 °C 21.5 °C 1010 hPa SE 8 km/h 14.5 km/h 89 % 0 mm
23:52 23.4 °C 21.7 °C 1010 hPa ESE 8 km/h 14.5 km/h 90 % 0 mm
23:57 23.3 °C 21.6 °C 1010 hPa SE 9.7 km/h 14.5 km/h 90 % 0 mm
Spring, Texas: Villages of Bridgestone
Compliments of Weather Underground - 2.75 mb

Script developed by  Jim McMurry - jmcmurry@mwt.net Adapted for the template by  Wim van der Kuil - Leuven-Template.eu

You find our weather info also at:

UK Metoffice

WeatherCloud

Weather Underground

Mid-South Weather Network

AWEKAS

Citizen Weather Observer Program (CWOP)

HAMweather, WeatherForYou, PWS Weather

Equipment we use:

Weather-station
Davis Vantage Vue

Weather-program
Meteohub

Weather-server
Debian 7.9 x86 (Guest)

Provider
DreamHost

Davis Vantage Vue

Meteohub

Debian 7.9 x86 (Guest)

DreamHost